sensor_id;sensor_type;location;lat;lon;timestamp;temperature;humidity
49679;DHT22;35570;48.218;16.326;2023-06-14T00:00:39;17.60;72.60
49679;DHT22;35570;48.218;16.326;2023-06-14T00:03:06;17.60;72.60
49679;DHT22;35570;48.218;16.326;2023-06-14T00:05:35;17.60;73.20
49679;DHT22;35570;48.218;16.326;2023-06-14T00:08:06;17.50;74.10
49679;DHT22;35570;48.218;16.326;2023-06-14T00:10:34;17.50;74.60
49679;DHT22;35570;48.218;16.326;2023-06-14T00:13:04;17.50;74.40
49679;DHT22;35570;48.218;16.326;2023-06-14T00:15:31;17.50;74.10
49679;DHT22;35570;48.218;16.326;2023-06-14T00:18:00;17.50;74.50
49679;DHT22;35570;48.218;16.326;2023-06-14T00:20:30;17.50;75.00
49679;DHT22;35570;48.218;16.326;2023-06-14T00:22:58;17.50;73.60
49679;DHT22;35570;48.218;16.326;2023-06-14T00:25:24;17.40;75.00
49679;DHT22;35570;48.218;16.326;2023-06-14T00:27:57;17.40;75.20
49679;DHT22;35570;48.218;16.326;2023-06-14T00:30:23;17.40;75.70
49679;DHT22;35570;48.218;16.326;2023-06-14T00:32:48;17.40;75.40
49679;DHT22;35570;48.218;16.326;2023-06-14T00:35:15;17.30;74.50
49679;DHT22;35570;48.218;16.326;2023-06-14T00:37:41;17.40;75.30
49679;DHT22;35570;48.218;16.326;2023-06-14T00:40:07;17.30;75.20
49679;DHT22;35570;48.218;16.326;2023-06-14T00:42:33;17.30;76.20
49679;DHT22;35570;48.218;16.326;2023-06-14T00:44:59;17.30;76.30
49679;DHT22;35570;48.218;16.326;2023-06-14T00:47:25;17.30;77.40
49679;DHT22;35570;48.218;16.326;2023-06-14T00:49:53;17.20;77.30
49679;DHT22;35570;48.218;16.326;2023-06-14T00:52:20;17.20;77.00
49679;DHT22;35570;48.218;16.326;2023-06-14T00:54:46;17.30;76.80
49679;DHT22;35570;48.218;16.326;2023-06-14T00:57:13;17.30;76.80
49679;DHT22;35570;48.218;16.326;2023-06-14T00:59:46;17.30;78.00
49679;DHT22;35570;48.218;16.326;2023-06-14T01:02:13;17.20;75.30
49679;DHT22;35570;48.218;16.326;2023-06-14T01:04:41;17.10;76.30
49679;DHT22;35570;48.218;16.326;2023-06-14T01:07:15;17.10;76.80
49679;DHT22;35570;48.218;16.326;2023-06-14T01:09:58;17.10;78.30
49679;DHT22;35570;48.218;16.326;2023-06-14T01:12:46;17.10;76.80
49679;DHT22;35570;48.218;16.326;2023-06-14T01:15:14;17.00;78.70
49679;DHT22;35570;48.218;16.326;2023-06-14T01:17:41;17.00;78.20
49679;DHT22;35570;48.218;16.326;2023-06-14T01:20:14;17.00;80.60
49679;DHT22;35570;48.218;16.326;2023-06-14T01:22:53;16.90;80.20
49679;DHT22;35570;48.218;16.326;2023-06-14T01:25:22;16.90;80.50
49679;DHT22;35570;48.218;16.326;2023-06-14T01:27:50;17.00;81.00
49679;DHT22;35570;48.218;16.326;2023-06-14T01:30:17;16.90;80.50
49679;DHT22;35570;48.218;16.326;2023-06-14T01:32:44;17.10;80.60
49679;DHT22;35570;48.218;16.326;2023-06-14T01:35:10;17.00;79.70
49679;DHT22;35570;48.218;16.326;2023-06-14T01:37:36;17.10;81.40
49679;DHT22;35570;48.218;16.326;2023-06-14T01:40:04;17.00;80.50
49679;DHT22;35570;48.218;16.326;2023-06-14T01:42:35;17.00;80.30
49679;DHT22;35570;48.218;16.326;2023-06-14T01:45:03;17.00;81.60
49679;DHT22;35570;48.218;16.326;2023-06-14T01:47:31;17.00;80.20
49679;DHT22;35570;48.218;16.326;2023-06-14T01:49:57;16.90;81.00
49679;DHT22;35570;48.218;16.326;2023-06-14T01:52:23;16.90;81.00
49679;DHT22;35570;48.218;16.326;2023-06-14T01:54:50;16.90;81.60
49679;DHT22;35570;48.218;16.326;2023-06-14T01:57:16;16.90;82.50
49679;DHT22;35570;48.218;16.326;2023-06-14T01:59:42;16.80;82.40
49679;DHT22;35570;48.218;16.326;2023-06-14T02:02:07;16.80;83.20
49679;DHT22;35570;48.218;16.326;2023-06-14T02:04:33;16.80;83.10
49679;DHT22;35570;48.218;16.326;2023-06-14T02:06:59;16.90;83.40
49679;DHT22;35570;48.218;16.326;2023-06-14T02:09:25;16.90;83.30
49679;DHT22;35570;48.218;16.326;2023-06-14T02:11:50;16.90;82.80
49679;DHT22;35570;48.218;16.326;2023-06-14T02:14:20;16.90;83.10
49679;DHT22;35570;48.218;16.326;2023-06-14T02:16:45;16.90;83.60
49679;DHT22;35570;48.218;16.326;2023-06-14T02:19:18;16.90;81.60
49679;DHT22;35570;48.218;16.326;2023-06-14T02:21:44;16.90;82.60
49679;DHT22;35570;48.218;16.326;2023-06-14T02:24:10;16.80;81.40
49679;DHT22;35570;48.218;16.326;2023-06-14T02:26:36;16.70;83.00
49679;DHT22;35570;48.218;16.326;2023-06-14T02:29:08;16.70;82.90
49679;DHT22;35570;48.218;16.326;2023-06-14T02:31:36;16.70;83.50
49679;DHT22;35570;48.218;16.326;2023-06-14T02:34:02;16.70;84.30
49679;DHT22;35570;48.218;16.326;2023-06-14T02:36:28;15.50;83.10
49679;DHT22;35570;48.218;16.326;2023-06-14T02:38:57;16.70;83.00
49679;DHT22;35570;48.218;16.326;2023-06-14T02:41:26;16.70;84.50
49679;DHT22;35570;48.218;16.326;2023-06-14T02:43:55;16.70;84.00
49679;DHT22;35570;48.218;16.326;2023-06-14T02:46:21;16.70;83.50
49679;DHT22;35570;48.218;16.326;2023-06-14T02:48:47;16.70;85.20
49679;DHT22;35570;48.218;16.326;2023-06-14T02:51:13;16.60;84.20
49679;DHT22;35570;48.218;16.326;2023-06-14T02:53:38;16.60;83.60
49679;DHT22;35570;48.218;16.326;2023-06-14T02:56:04;16.60;84.40
49679;DHT22;35570;48.218;16.326;2023-06-14T02:58:30;16.60;86.80
49679;DHT22;35570;48.218;16.326;2023-06-14T03:00:56;16.70;87.30
49679;DHT22;35570;48.218;16.326;2023-06-14T03:03:22;16.70;86.50
49679;DHT22;35570;48.218;16.326;2023-06-14T03:05:50;16.80;86.60
49679;DHT22;35570;48.218;16.326;2023-06-14T03:08:17;16.70;86.80
49679;DHT22;35570;48.218;16.326;2023-06-14T03:10:45;16.90;85.30
49679;DHT22;35570;48.218;16.326;2023-06-14T03:13:12;16.80;86.50
49679;DHT22;35570;48.218;16.326;2023-06-14T03:15:37;16.70;85.80
49679;DHT22;35570;48.218;16.326;2023-06-14T03:18:04;16.70;87.30
49679;DHT22;35570;48.218;16.326;2023-06-14T03:20:30;16.70;86.20
49679;DHT22;35570;48.218;16.326;2023-06-14T03:23:02;16.70;86.90
49679;DHT22;35570;48.218;16.326;2023-06-14T03:25:28;16.80;86.00
49679;DHT22;35570;48.218;16.326;2023-06-14T03:27:56;16.80;87.40
49679;DHT22;35570;48.218;16.326;2023-06-14T03:30:22;16.80;90.50
49679;DHT22;35570;48.218;16.326;2023-06-14T03:32:47;16.90;91.60
49679;DHT22;35570;48.218;16.326;2023-06-14T03:35:13;17.10;91.10
49679;DHT22;35570;48.218;16.326;2023-06-14T03:37:46;17.10;90.60
49679;DHT22;35570;48.218;16.326;2023-06-14T03:40:14;17.20;89.40
49679;DHT22;35570;48.218;16.326;2023-06-14T03:42:40;17.30;90.20
49679;DHT22;35570;48.218;16.326;2023-06-14T03:45:06;17.40;88.60
49679;DHT22;35570;48.218;16.326;2023-06-14T03:47:32;17.40;86.50
49679;DHT22;35570;48.218;16.326;2023-06-14T03:49:58;17.40;87.10
49679;DHT22;35570;48.218;16.326;2023-06-14T03:52:24;17.40;88.20
49679;DHT22;35570;48.218;16.326;2023-06-14T03:54:50;17.30;87.50
49679;DHT22;35570;48.218;16.326;2023-06-14T03:57:16;17.30;87.30
49679;DHT22;35570;48.218;16.326;2023-06-14T03:59:42;17.30;85.70
49679;DHT22;35570;48.218;16.326;2023-06-14T04:02:08;17.30;86.20
49679;DHT22;35570;48.218;16.326;2023-06-14T04:04:35;17.20;86.70
49679;DHT22;35570;48.218;16.326;2023-06-14T04:07:01;17.20;85.30
49679;DHT22;35570;48.218;16.326;2023-06-14T04:09:29;17.20;85.00
49679;DHT22;35570;48.218;16.326;2023-06-14T04:11:56;17.10;87.30
49679;DHT22;35570;48.218;16.326;2023-06-14T04:14:22;17.10;85.20
49679;DHT22;35570;48.218;16.326;2023-06-14T04:16:49;17.10;85.90
49679;DHT22;35570;48.218;16.326;2023-06-14T04:19:15;17.00;87.00
49679;DHT22;35570;48.218;16.326;2023-06-14T04:21:41;17.00;88.00
49679;DHT22;35570;48.218;16.326;2023-06-14T04:24:07;17.10;88.60
49679;DHT22;35570;48.218;16.326;2023-06-14T04:26:39;17.10;89.00
49679;DHT22;35570;48.218;16.326;2023-06-14T04:29:05;17.10;87.50
49679;DHT22;35570;48.218;16.326;2023-06-14T04:31:31;17.20;87.70
49679;DHT22;35570;48.218;16.326;2023-06-14T04:34:03;17.20;86.40
49679;DHT22;35570;48.218;16.326;2023-06-14T04:36:35;17.30;86.00
49679;DHT22;35570;48.218;16.326;2023-06-14T04:39:03;17.30;86.10
49679;DHT22;35570;48.218;16.326;2023-06-14T04:41:30;17.30;85.70
49679;DHT22;35570;48.218;16.326;2023-06-14T04:43:57;17.40;86.70
49679;DHT22;35570;48.218;16.326;2023-06-14T04:46:27;17.40;85.60
49679;DHT22;35570;48.218;16.326;2023-06-14T04:48:54;17.50;85.20
49679;DHT22;35570;48.218;16.326;2023-06-14T04:51:20;17.60;84.50
49679;DHT22;35570;48.218;16.326;2023-06-14T04:53:48;17.60;84.50
49679;DHT22;35570;48.218;16.326;2023-06-14T04:56:15;17.60;82.30
49679;DHT22;35570;48.218;16.326;2023-06-14T04:58:42;17.70;82.90
49679;DHT22;35570;48.218;16.326;2023-06-14T05:01:09;17.80;81.70
49679;DHT22;35570;48.218;16.326;2023-06-14T05:03:35;17.80;80.80
49679;DHT22;35570;48.218;16.326;2023-06-14T05:06:00;17.90;81.10
49679;DHT22;35570;48.218;16.326;2023-06-14T05:08:26;17.90;81.00
49679;DHT22;35570;48.218;16.326;2023-06-14T05:10:52;17.90;81.50
49679;DHT22;35570;48.218;16.326;2023-06-14T05:13:18;18.00;79.70
49679;DHT22;35570;48.218;16.326;2023-06-14T05:15:44;18.10;80.50
49679;DHT22;35570;48.218;16.326;2023-06-14T05:18:10;18.10;79.20
49679;DHT22;35570;48.218;16.326;2023-06-14T05:20:35;18.20;79.90
49679;DHT22;35570;48.218;16.326;2023-06-14T05:23:02;18.20;79.10
49679;DHT22;35570;48.218;16.326;2023-06-14T05:25:28;18.30;79.70
49679;DHT22;35570;48.218;16.326;2023-06-14T05:27:54;18.40;78.30
49679;DHT22;35570;48.218;16.326;2023-06-14T05:30:20;18.40;79.60
49679;DHT22;35570;48.218;16.326;2023-06-14T05:32:45;18.40;79.90
49679;DHT22;35570;48.218;16.326;2023-06-14T05:35:11;18.50;77.20
49679;DHT22;35570;48.218;16.326;2023-06-14T05:37:43;18.50;77.70
49679;DHT22;35570;48.218;16.326;2023-06-14T05:40:09;18.50;76.40
49679;DHT22;35570;48.218;16.326;2023-06-14T05:42:34;18.50;77.40
49679;DHT22;35570;48.218;16.326;2023-06-14T05:45:00;18.60;76.60
49679;DHT22;35570;48.218;16.326;2023-06-14T05:47:26;18.70;77.10
49679;DHT22;35570;48.218;16.326;2023-06-14T05:49:53;18.70;76.50
49679;DHT22;35570;48.218;16.326;2023-06-14T05:52:20;18.80;76.40
49679;DHT22;35570;48.218;16.326;2023-06-14T05:54:46;18.80;75.00
49679;DHT22;35570;48.218;16.326;2023-06-14T05:57:12;18.90;73.50
49679;DHT22;35570;48.218;16.326;2023-06-14T05:59:37;19.00;73.60
49679;DHT22;35570;48.218;16.326;2023-06-14T06:02:03;19.00;73.20
49679;DHT22;35570;48.218;16.326;2023-06-14T06:04:29;19.00;73.00
49679;DHT22;35570;48.218;16.326;2023-06-14T06:06:54;19.00;75.10
49679;DHT22;35570;48.218;16.326;2023-06-14T06:09:20;19.00;73.30
49679;DHT22;35570;48.218;16.326;2023-06-14T06:11:46;19.10;73.90
49679;DHT22;35570;48.218;16.326;2023-06-14T06:14:11;19.10;72.90
49679;DHT22;35570;48.218;16.326;2023-06-14T06:16:37;19.20;73.80
49679;DHT22;35570;48.218;16.326;2023-06-14T06:19:03;19.20;73.10
49679;DHT22;35570;48.218;16.326;2023-06-14T06:21:28;19.20;74.30
49679;DHT22;35570;48.218;16.326;2023-06-14T06:23:54;19.20;72.30
49679;DHT22;35570;48.218;16.326;2023-06-14T06:26:22;19.20;73.10
49679;DHT22;35570;48.218;16.326;2023-06-14T06:28:47;19.20;70.80
49679;DHT22;35570;48.218;16.326;2023-06-14T06:31:13;19.20;70.40
49679;DHT22;35570;48.218;16.326;2023-06-14T06:33:39;19.20;72.10
49679;DHT22;35570;48.218;16.326;2023-06-14T06:36:05;19.20;73.10
49679;DHT22;35570;48.218;16.326;2023-06-14T06:38:31;19.20;72.60
49679;DHT22;35570;48.218;16.326;2023-06-14T06:40:57;19.20;72.40
49679;DHT22;35570;48.218;16.326;2023-06-14T06:43:22;19.20;73.20
49679;DHT22;35570;48.218;16.326;2023-06-14T06:45:48;19.30;73.30
49679;DHT22;35570;48.218;16.326;2023-06-14T06:48:13;19.30;73.30
49679;DHT22;35570;48.218;16.326;2023-06-14T06:50:39;19.30;73.10
49679;DHT22;35570;48.218;16.326;2023-06-14T06:53:05;19.30;73.70
49679;DHT22;35570;48.218;16.326;2023-06-14T06:55:32;19.40;71.60
49679;DHT22;35570;48.218;16.326;2023-06-14T06:57:57;19.40;70.70
49679;DHT22;35570;48.218;16.326;2023-06-14T07:00:24;19.50;71.90
49679;DHT22;35570;48.218;16.326;2023-06-14T07:02:49;19.50;69.20
49679;DHT22;35570;48.218;16.326;2023-06-14T07:05:16;19.50;70.00
49679;DHT22;35570;48.218;16.326;2023-06-14T07:07:41;19.50;69.00
49679;DHT22;35570;48.218;16.326;2023-06-14T07:10:07;19.50;68.90
49679;DHT22;35570;48.218;16.326;2023-06-14T07:12:33;19.60;68.80
49679;DHT22;35570;48.218;16.326;2023-06-14T07:15:01;19.70;70.30
49679;DHT22;35570;48.218;16.326;2023-06-14T07:17:27;19.70;69.80
49679;DHT22;35570;48.218;16.326;2023-06-14T07:19:52;19.70;68.10
49679;DHT22;35570;48.218;16.326;2023-06-14T07:22:19;19.80;67.90
49679;DHT22;35570;48.218;16.326;2023-06-14T07:24:45;19.90;67.00
49679;DHT22;35570;48.218;16.326;2023-06-14T07:27:11;19.90;69.80
49679;DHT22;35570;48.218;16.326;2023-06-14T07:29:38;20.10;67.20
49679;DHT22;35570;48.218;16.326;2023-06-14T07:32:04;20.10;66.40
49679;DHT22;35570;48.218;16.326;2023-06-14T07:34:31;20.20;67.30
49679;DHT22;35570;48.218;16.326;2023-06-14T07:36:57;20.30;66.50
49679;DHT22;35570;48.218;16.326;2023-06-14T07:39:23;20.50;66.20
49679;DHT22;35570;48.218;16.326;2023-06-14T07:41:49;20.60;67.00
49679;DHT22;35570;48.218;16.326;2023-06-14T07:44:14;20.70;66.70
49679;DHT22;35570;48.218;16.326;2023-06-14T07:46:41;20.90;66.80
49679;DHT22;35570;48.218;16.326;2023-06-14T07:49:06;21.00;67.10
49679;DHT22;35570;48.218;16.326;2023-06-14T07:51:33;21.10;65.90
49679;DHT22;35570;48.218;16.326;2023-06-14T07:54:00;21.20;67.20
49679;DHT22;35570;48.218;16.326;2023-06-14T07:56:28;21.30;66.60
49679;DHT22;35570;48.218;16.326;2023-06-14T07:58:54;21.30;66.40
49679;DHT22;35570;48.218;16.326;2023-06-14T08:01:20;21.40;65.80
49679;DHT22;35570;48.218;16.326;2023-06-14T08:03:45;21.50;65.90
49679;DHT22;35570;48.218;16.326;2023-06-14T08:06:11;21.60;64.10
49679;DHT22;35570;48.218;16.326;2023-06-14T08:08:37;21.50;62.80
49679;DHT22;35570;48.218;16.326;2023-06-14T08:11:02;21.60;65.10
49679;DHT22;35570;48.218;16.326;2023-06-14T08:13:28;21.50;65.20
49679;DHT22;35570;48.218;16.326;2023-06-14T08:15:54;21.50;65.50
49679;DHT22;35570;48.218;16.326;2023-06-14T08:18:22;21.40;62.00
49679;DHT22;35570;48.218;16.326;2023-06-14T08:20:48;21.30;63.90
49679;DHT22;35570;48.218;16.326;2023-06-14T08:23:14;21.50;67.10
49679;DHT22;35570;48.218;16.326;2023-06-14T08:25:39;21.60;65.60
49679;DHT22;35570;48.218;16.326;2023-06-14T08:28:05;21.80;65.60
49679;DHT22;35570;48.218;16.326;2023-06-14T08:30:31;22.00;63.80
49679;DHT22;35570;48.218;16.326;2023-06-14T08:32:57;22.20;65.00
49679;DHT22;35570;48.218;16.326;2023-06-14T08:35:23;22.40;64.10
49679;DHT22;35570;48.218;16.326;2023-06-14T08:37:49;22.70;64.30
49679;DHT22;35570;48.218;16.326;2023-06-14T08:40:23;22.90;60.30
49679;DHT22;35570;48.218;16.326;2023-06-14T08:42:53;23.00;61.10
49679;DHT22;35570;48.218;16.326;2023-06-14T08:45:23;23.10;60.80
49679;DHT22;35570;48.218;16.326;2023-06-14T08:47:50;23.20;61.70
49679;DHT22;35570;48.218;16.326;2023-06-14T08:50:23;23.30;59.70
49679;DHT22;35570;48.218;16.326;2023-06-14T08:52:54;23.30;56.90
49679;DHT22;35570;48.218;16.326;2023-06-14T08:55:22;23.20;60.90
49679;DHT22;35570;48.218;16.326;2023-06-14T08:57:51;23.30;61.00
49679;DHT22;35570;48.218;16.326;2023-06-14T09:00:19;23.30;56.00
49679;DHT22;35570;48.218;16.326;2023-06-14T09:02:46;23.30;58.30
49679;DHT22;35570;48.218;16.326;2023-06-14T09:05:15;23.30;57.30
49679;DHT22;35570;48.218;16.326;2023-06-14T09:07:44;23.10;55.10
49679;DHT22;35570;48.218;16.326;2023-06-14T09:10:12;23.10;58.20
49679;DHT22;35570;48.218;16.326;2023-06-14T09:12:38;23.10;59.60
49679;DHT22;35570;48.218;16.326;2023-06-14T09:15:05;23.00;58.60
49679;DHT22;35570;48.218;16.326;2023-06-14T09:17:37;23.20;59.60
49679;DHT22;35570;48.218;16.326;2023-06-14T09:20:04;23.40;58.80
49679;DHT22;35570;48.218;16.326;2023-06-14T09:22:39;23.50;58.50
49679;DHT22;35570;48.218;16.326;2023-06-14T09:25:05;23.70;57.80
49679;DHT22;35570;48.218;16.326;2023-06-14T09:27:34;23.90;60.00
49679;DHT22;35570;48.218;16.326;2023-06-14T09:30:02;24.10;60.80
49679;DHT22;35570;48.218;16.326;2023-06-14T09:32:28;24.40;56.70
49679;DHT22;35570;48.218;16.326;2023-06-14T09:34:54;24.50;58.50
49679;DHT22;35570;48.218;16.326;2023-06-14T09:37:30;24.60;54.80
49679;DHT22;35570;48.218;16.326;2023-06-14T09:39:56;24.50;53.50
49679;DHT22;35570;48.218;16.326;2023-06-14T09:42:22;24.40;54.40
49679;DHT22;35570;48.218;16.326;2023-06-14T09:44:52;24.40;57.40
49679;DHT22;35570;48.218;16.326;2023-06-14T09:47:18;24.40;54.70
49679;DHT22;35570;48.218;16.326;2023-06-14T09:49:44;24.50;54.50
49679;DHT22;35570;48.218;16.326;2023-06-14T09:52:20;24.60;56.50
49679;DHT22;35570;48.218;16.326;2023-06-14T09:54:46;24.70;54.00
49679;DHT22;35570;48.218;16.326;2023-06-14T09:57:17;24.80;54.20
49679;DHT22;35570;48.218;16.326;2023-06-14T09:59:47;25.00;55.20
49679;DHT22;35570;48.218;16.326;2023-06-14T10:02:25;25.20;54.20
49679;DHT22;35570;48.218;16.326;2023-06-14T10:05:03;25.30;52.20
49679;DHT22;35570;48.218;16.326;2023-06-14T10:07:35;25.50;55.80
49679;DHT22;35570;48.218;16.326;2023-06-14T10:10:01;25.70;54.60
49679;DHT22;35570;48.218;16.326;2023-06-14T10:12:27;26.00;53.50
49679;DHT22;35570;48.218;16.326;2023-06-14T10:14:53;26.30;52.90
49679;DHT22;35570;48.218;16.326;2023-06-14T10:22:43;26.50;46.70
49679;DHT22;35570;48.218;16.326;2023-06-14T10:25:26;26.30;48.40
49679;DHT22;35570;48.218;16.326;2023-06-14T10:27:52;25.90;47.80
49679;DHT22;35570;48.218;16.326;2023-06-14T10:30:25;25.50;49.80
49679;DHT22;35570;48.218;16.326;2023-06-14T10:33:07;25.10;48.50
49679;DHT22;35570;48.218;16.326;2023-06-14T10:35:33;24.80;50.00
49679;DHT22;35570;48.218;16.326;2023-06-14T10:38:10;24.60;50.70
49679;DHT22;35570;48.218;16.326;2023-06-14T10:40:36;24.40;52.50
49679;DHT22;35570;48.218;16.326;2023-06-14T10:43:21;24.20;52.70
49679;DHT22;35570;48.218;16.326;2023-06-14T10:46:19;24.00;50.60
49679;DHT22;35570;48.218;16.326;2023-06-14T10:48:48;23.90;53.80
49679;DHT22;35570;48.218;16.326;2023-06-14T10:51:18;23.80;53.90
49679;DHT22;35570;48.218;16.326;2023-06-14T10:53:46;23.80;53.30
49679;DHT22;35570;48.218;16.326;2023-06-14T10:56:33;23.70;53.30
49679;DHT22;35570;48.218;16.326;2023-06-14T10:58:59;23.80;52.90
49679;DHT22;35570;48.218;16.326;2023-06-14T11:01:40;23.90;55.20
49679;DHT22;35570;48.218;16.326;2023-06-14T11:04:11;23.90;54.90
49679;DHT22;35570;48.218;16.326;2023-06-14T11:06:48;24.00;53.60
49679;DHT22;35570;48.218;16.326;2023-06-14T11:09:47;24.40;54.40
49679;DHT22;35570;48.218;16.326;2023-06-14T11:12:18;24.80;51.10
49679;DHT22;35570;48.218;16.326;2023-06-14T11:14:46;25.30;51.40
49679;DHT22;35570;48.218;16.326;2023-06-14T11:17:13;25.70;52.30
49679;DHT22;35570;48.218;16.326;2023-06-14T11:19:38;25.80;45.70
49679;DHT22;35570;48.218;16.326;2023-06-14T11:22:04;25.50;46.50
49679;DHT22;35570;48.218;16.326;2023-06-14T11:24:32;25.30;47.60
49679;DHT22;35570;48.218;16.326;2023-06-14T11:26:58;25.10;49.10
49679;DHT22;35570;48.218;16.326;2023-06-14T11:29:24;25.00;50.10
49679;DHT22;35570;48.218;16.326;2023-06-14T11:31:50;24.80;50.10
49679;DHT22;35570;48.218;16.326;2023-06-14T11:34:16;24.70;46.00
49679;DHT22;35570;48.218;16.326;2023-06-14T11:36:42;24.50;46.70
49679;DHT22;35570;48.218;16.326;2023-06-14T11:39:08;24.50;49.00
49679;DHT22;35570;48.218;16.326;2023-06-14T11:41:44;24.50;50.30
49679;DHT22;35570;48.218;16.326;2023-06-14T11:44:11;24.50;52.10
49679;DHT22;35570;48.218;16.326;2023-06-14T11:46:37;24.50;52.60
49679;DHT22;35570;48.218;16.326;2023-06-14T11:49:03;24.60;52.60
49679;DHT22;35570;48.218;16.326;2023-06-14T11:51:33;24.70;52.20
49679;DHT22;35570;48.218;16.326;2023-06-14T11:54:01;24.80;51.80
49679;DHT22;35570;48.218;16.326;2023-06-14T11:56:28;24.70;50.60
49679;DHT22;35570;48.218;16.326;2023-06-14T11:58:54;24.70;51.10
49679;DHT22;35570;48.218;16.326;2023-06-14T12:01:22;24.60;50.70
49679;DHT22;35570;48.218;16.326;2023-06-14T12:03:53;24.60;49.20
49679;DHT22;35570;48.218;16.326;2023-06-14T12:06:29;24.50;49.60
49679;DHT22;35570;48.218;16.326;2023-06-14T12:08:58;24.50;52.00
49679;DHT22;35570;48.218;16.326;2023-06-14T12:11:31;24.70;53.70
49679;DHT22;35570;48.218;16.326;2023-06-14T12:13:57;24.70;50.20
49679;DHT22;35570;48.218;16.326;2023-06-14T12:16:30;24.80;49.30
49679;DHT22;35570;48.218;16.326;2023-06-14T12:19:00;24.70;50.00
49679;DHT22;35570;48.218;16.326;2023-06-14T12:21:27;24.60;50.30
49679;DHT22;35570;48.218;16.326;2023-06-14T12:23:54;24.50;50.70
49679;DHT22;35570;48.218;16.326;2023-06-14T12:26:20;24.40;51.40
49679;DHT22;35570;48.218;16.326;2023-06-14T12:28:47;24.30;49.30
49679;DHT22;35570;48.218;16.326;2023-06-14T12:31:14;24.10;50.80
49679;DHT22;35570;48.218;16.326;2023-06-14T12:33:40;24.00;51.00
49679;DHT22;35570;48.218;16.326;2023-06-14T12:36:10;23.90;51.00
49679;DHT22;35570;48.218;16.326;2023-06-14T12:38:37;23.80;51.50
49679;DHT22;35570;48.218;16.326;2023-06-14T12:41:03;23.80;53.50
49679;DHT22;35570;48.218;16.326;2023-06-14T12:43:28;23.80;52.00
49679;DHT22;35570;48.218;16.326;2023-06-14T12:45:54;23.80;52.10
49679;DHT22;35570;48.218;16.326;2023-06-14T12:48:20;23.80;52.60
49679;DHT22;35570;48.218;16.326;2023-06-14T12:50:47;23.80;53.70
49679;DHT22;35570;48.218;16.326;2023-06-14T12:53:12;23.90;52.80
49679;DHT22;35570;48.218;16.326;2023-06-14T12:55:39;24.20;53.30
49679;DHT22;35570;48.218;16.326;2023-06-14T12:58:05;24.20;50.00
49679;DHT22;35570;48.218;16.326;2023-06-14T13:00:31;24.20;51.20
49679;DHT22;35570;48.218;16.326;2023-06-14T13:02:57;24.10;50.20
49679;DHT22;35570;48.218;16.326;2023-06-14T13:05:23;24.00;50.20
49679;DHT22;35570;48.218;16.326;2023-06-14T13:07:49;24.00;50.60
49679;DHT22;35570;48.218;16.326;2023-06-14T13:10:15;23.90;52.10
49679;DHT22;35570;48.218;16.326;2023-06-14T13:12:41;24.00;53.50
49679;DHT22;35570;48.218;16.326;2023-06-14T13:15:07;24.20;51.50
49679;DHT22;35570;48.218;16.326;2023-06-14T13:17:34;24.40;53.10
49679;DHT22;35570;48.218;16.326;2023-06-14T13:20:07;24.30;51.30
49679;DHT22;35570;48.218;16.326;2023-06-14T13:22:34;24.40;50.30
49679;DHT22;35570;48.218;16.326;2023-06-14T13:25:00;24.30;51.50
49679;DHT22;35570;48.218;16.326;2023-06-14T13:27:26;24.30;51.90
49679;DHT22;35570;48.218;16.326;2023-06-14T13:29:53;24.40;50.50
49679;DHT22;35570;48.218;16.326;2023-06-14T13:32:20;24.30;50.80
49679;DHT22;35570;48.218;16.326;2023-06-14T13:34:46;24.30;50.60
49679;DHT22;35570;48.218;16.326;2023-06-14T13:37:12;24.30;49.90
49679;DHT22;35570;48.218;16.326;2023-06-14T13:39:37;24.30;50.80
49679;DHT22;35570;48.218;16.326;2023-06-14T13:42:03;24.20;50.20
49679;DHT22;35570;48.218;16.326;2023-06-14T13:44:29;24.10;49.40
49679;DHT22;35570;48.218;16.326;2023-06-14T13:46:55;23.90;48.80
49679;DHT22;35570;48.218;16.326;2023-06-14T13:49:20;23.70;50.00
49679;DHT22;35570;48.218;16.326;2023-06-14T13:51:47;23.60;49.40
49679;DHT22;35570;48.218;16.326;2023-06-14T13:54:13;23.50;50.50
49679;DHT22;35570;48.218;16.326;2023-06-14T13:56:40;23.40;49.90
49679;DHT22;35570;48.218;16.326;2023-06-14T13:59:06;23.60;50.50
49679;DHT22;35570;48.218;16.326;2023-06-14T14:01:32;23.80;49.50
49679;DHT22;35570;48.218;16.326;2023-06-14T14:03:57;24.30;50.10
49679;DHT22;35570;48.218;16.326;2023-06-14T14:06:24;25.80;45.60
49679;DHT22;35570;48.218;16.326;2023-06-14T14:08:50;27.70;46.40
49679;DHT22;35570;48.218;16.326;2023-06-14T14:11:16;29.20;42.50
49679;DHT22;35570;48.218;16.326;2023-06-14T14:13:41;30.20;41.10
49679;DHT22;35570;48.218;16.326;2023-06-14T14:16:08;30.70;40.20
49679;DHT22;35570;48.218;16.326;2023-06-14T14:18:33;30.50;39.20
49679;DHT22;35570;48.218;16.326;2023-06-14T14:20:59;30.30;40.50
49679;DHT22;35570;48.218;16.326;2023-06-14T14:23:26;29.80;39.00
49679;DHT22;35570;48.218;16.326;2023-06-14T14:25:52;29.00;42.10
49679;DHT22;35570;48.218;16.326;2023-06-14T14:28:17;29.20;41.00
49679;DHT22;35570;48.218;16.326;2023-06-14T14:30:46;29.30;40.20
49679;DHT22;35570;48.218;16.326;2023-06-14T14:33:15;29.60;40.30
49679;DHT22;35570;48.218;16.326;2023-06-14T14:35:45;30.00;39.40
49679;DHT22;35570;48.218;16.326;2023-06-14T14:38:12;30.30;40.20
49679;DHT22;35570;48.218;16.326;2023-06-14T14:40:38;30.50;40.90
49679;DHT22;35570;48.218;16.326;2023-06-14T14:43:04;30.50;41.50
49679;DHT22;35570;48.218;16.326;2023-06-14T14:45:30;30.50;40.80
49679;DHT22;35570;48.218;16.326;2023-06-14T14:47:56;30.40;39.90
49679;DHT22;35570;48.218;16.326;2023-06-14T14:50:21;29.90;41.40
49679;DHT22;35570;48.218;16.326;2023-06-14T14:52:47;29.30;42.20
49679;DHT22;35570;48.218;16.326;2023-06-14T14:55:13;28.50;44.30
49679;DHT22;35570;48.218;16.326;2023-06-14T14:57:38;27.80;44.50
49679;DHT22;35570;48.218;16.326;2023-06-14T15:00:05;27.20;44.00
49679;DHT22;35570;48.218;16.326;2023-06-14T15:02:31;26.70;45.10
49679;DHT22;35570;48.218;16.326;2023-06-14T15:04:57;26.20;45.00
49679;DHT22;35570;48.218;16.326;2023-06-14T15:07:32;26.00;46.60
49679;DHT22;35570;48.218;16.326;2023-06-14T15:09:59;25.80;45.10
49679;DHT22;35570;48.218;16.326;2023-06-14T15:12:25;25.70;45.10
49679;DHT22;35570;48.218;16.326;2023-06-14T15:14:51;25.40;45.10
49679;DHT22;35570;48.218;16.326;2023-06-14T15:17:20;25.10;46.60
49679;DHT22;35570;48.218;16.326;2023-06-14T15:19:47;24.90;47.10
49679;DHT22;35570;48.218;16.326;2023-06-14T15:22:13;24.70;47.80